createdAt,value
2022-10-05T00:04:53.976Z,7.53
2022-10-05T00:09:59.287Z,7.03
2022-10-05T00:15:01.769Z,7.38
2022-10-05T00:20:17.193Z,7.35
2022-10-05T00:25:21.771Z,7.35
2022-10-05T00:30:25.700Z,8.45
2022-10-05T00:35:29.265Z,8.02
2022-10-05T00:40:36.926Z,7.53
2022-10-05T00:45:52.175Z,8.43
2022-10-05T00:51:27.152Z,7.97
2022-10-05T00:56:37.352Z,7.70
2022-10-05T01:01:55.697Z,7.38
2022-10-05T01:07:02.902Z,7.95
2022-10-05T01:12:24.772Z,7.78
2022-10-05T01:17:36.527Z,7.30
2022-10-05T01:23:13.612Z,7.95
2022-10-05T01:28:47.899Z,8.98
2022-10-05T01:34:06.703Z,8.63
2022-10-05T01:39:40.757Z,8.35
2022-10-05T01:44:58.384Z,9.07
2022-10-05T01:50:11.652Z,8.30
2022-10-05T01:55:27.044Z,8.00
2022-10-05T02:00:32.749Z,8.73
2022-10-05T02:06:00.841Z,9.20
2022-10-05T02:11:07.456Z,7.78
2022-10-05T02:16:28.405Z,8.40
2022-10-05T02:21:33.541Z,8.30
2022-10-05T02:26:37.449Z,8.98
2022-10-05T02:31:50.864Z,8.57
2022-10-05T02:37:34.199Z,8.50
2022-10-05T02:42:54.517Z,9.52
2022-10-05T02:48:20.407Z,8.55
2022-10-05T02:53:55.518Z,9.02
2022-10-05T02:58:56.864Z,7.97
2022-10-05T03:04:10.116Z,7.88
2022-10-05T03:09:13.893Z,8.73
2022-10-05T03:14:30.577Z,8.55
2022-10-05T03:19:47.253Z,8.27
2022-10-05T03:25:22.193Z,9.02
2022-10-05T03:30:26.521Z,8.50
2022-10-05T03:40:41.603Z,8.25
2022-10-05T03:45:57.428Z,8.05
2022-10-05T03:51:19.972Z,8.48
2022-10-05T03:56:38.495Z,7.63
2022-10-05T04:01:45.530Z,8.20
2022-10-05T04:06:52.920Z,8.30
2022-10-05T04:11:57.360Z,8.55
2022-10-05T04:22:23.155Z,8.23
2022-10-05T04:27:35.912Z,8.48
2022-10-05T04:32:42.032Z,8.20
2022-10-05T04:37:55.277Z,7.65
2022-10-05T04:43:19.461Z,8.35
2022-10-05T04:48:38.716Z,7.85
2022-10-05T04:53:50.580Z,7.90
2022-10-05T04:59:05.432Z,7.82
2022-10-05T05:04:25.567Z,7.47
2022-10-05T05:10:11.096Z,8.13
2022-10-05T05:15:27.533Z,7.55
2022-10-05T05:20:56.081Z,7.57
2022-10-05T05:26:03.569Z,6.97
2022-10-05T05:31:34.615Z,7.60
2022-10-05T05:36:57.904Z,7.45
2022-10-05T05:42:32.202Z,7.00
2022-10-05T05:47:37.761Z,7.50
2022-10-05T05:52:49.169Z,7.38
2022-10-05T05:57:56.663Z,8.80
2022-10-05T06:03:11.454Z,8.85
2022-10-05T06:08:43.308Z,7.97
2022-10-05T06:13:46.006Z,7.40
2022-10-05T06:18:57.222Z,7.80
2022-10-05T06:24:01.258Z,7.70
2022-10-05T06:29:08.995Z,8.05
2022-10-05T06:34:27.675Z,7.97
2022-10-05T06:39:40.239Z,8.68
2022-10-05T06:45:04.879Z,7.93
2022-10-05T06:50:35.243Z,9.40
2022-10-05T06:55:54.155Z,8.75
2022-10-05T07:01:01.700Z,7.80
2022-10-05T07:06:15.202Z,8.93
2022-10-05T07:11:43.332Z,8.38
2022-10-05T07:16:56.442Z,8.93
2022-10-05T07:22:19.740Z,8.13
2022-10-05T07:27:25.279Z,8.50
2022-10-05T07:33:12.103Z,8.63
2022-10-05T07:38:26.368Z,8.68
2022-10-05T07:44:02.174Z,7.85
2022-10-05T07:49:19.699Z,8.88
2022-10-05T07:54:24.038Z,8.32
2022-10-05T07:59:34.463Z,9.57
2022-10-05T08:04:53.379Z,8.30
2022-10-05T08:10:42.507Z,9.00
2022-10-05T08:15:50.477Z,9.68
2022-10-05T08:20:57.880Z,8.80
2022-10-05T08:26:11.926Z,9.43
2022-10-05T08:31:25.102Z,8.93
2022-10-05T08:36:56.318Z,8.67
2022-10-05T08:42:17.664Z,8.85
2022-10-05T08:47:46.795Z,9.18
2022-10-05T08:53:12.165Z,9.50
2022-10-05T08:58:44.762Z,9.68
2022-10-05T09:04:19.864Z,8.88
2022-10-05T09:09:52.023Z,9.88
2022-10-05T09:15:24.266Z,9.98
2022-10-05T09:20:41.426Z,9.43
2022-10-05T09:26:09.240Z,9.23
2022-10-05T09:31:37.164Z,9.02
2022-10-05T09:36:47.775Z,9.20
2022-10-05T09:41:58.330Z,9.65
2022-10-05T09:47:07.458Z,10.00
2022-10-05T09:52:46.755Z,9.73
2022-10-05T09:58:12.450Z,9.88
2022-10-05T10:03:21.135Z,10.20
2022-10-05T10:08:44.194Z,8.32
2022-10-05T10:13:53.406Z,8.83
2022-10-05T10:19:24.178Z,8.05
2022-10-05T10:25:10.799Z,8.88
2022-10-05T10:30:39.255Z,7.90
2022-10-05T10:36:08.936Z,8.90
2022-10-05T10:41:30.279Z,7.80
2022-10-05T10:47:05.753Z,8.43
2022-10-05T10:52:31.879Z,7.43
2022-10-05T10:58:21.573Z,7.05
2022-10-05T11:03:28.728Z,7.25
2022-10-05T11:08:36.760Z,6.93
2022-10-05T11:14:02.716Z,6.55
2022-10-05T11:19:39.990Z,5.95
2022-10-05T11:24:51.005Z,5.38
2022-10-05T11:30:19.951Z,5.10
2022-10-05T11:35:34.452Z,4.95
2022-10-05T11:40:41.725Z,4.63
2022-10-05T11:46:08.217Z,4.93
2022-10-05T11:51:19.282Z,5.10
2022-10-05T11:56:33.707Z,4.80
2022-10-05T12:01:52.628Z,6.03
2022-10-05T12:07:00.180Z,6.60
2022-10-05T12:12:17.497Z,7.18
2022-10-05T12:17:37.836Z,6.32
2022-10-05T12:22:46.528Z,6.45
2022-10-05T12:27:53.289Z,5.70
2022-10-05T12:33:14.281Z,6.00
2022-10-05T12:38:41.446Z,6.20
2022-10-05T12:44:06.431Z,5.72
2022-10-05T12:49:13.952Z,5.78
2022-10-05T12:54:30.451Z,6.28
2022-10-05T12:59:50.599Z,5.90
2022-10-05T13:05:13.392Z,6.03
2022-10-05T13:10:45.048Z,6.95
2022-10-05T13:15:58.177Z,6.03
2022-10-05T13:21:13.298Z,6.87
2022-10-05T13:26:21.926Z,6.65
2022-10-05T13:31:31.035Z,6.63
2022-10-05T13:36:53.711Z,6.22
2022-10-05T13:42:04.695Z,5.85
2022-10-05T13:47:24.190Z,5.40
2022-10-05T13:53:04.089Z,5.60
2022-10-05T13:58:11.570Z,6.22
2022-10-05T14:03:35.088Z,6.05
2022-10-05T14:08:49.432Z,5.32
2022-10-05T14:14:00.365Z,5.80
2022-10-05T14:19:04.859Z,5.15
2022-10-05T14:24:43.193Z,5.70
2022-10-05T14:30:03.353Z,5.47
2022-10-05T14:35:14.004Z,5.00
2022-10-05T14:40:24.714Z,4.72
2022-10-05T14:45:33.282Z,4.30
2022-10-05T14:51:10.606Z,4.32
2022-10-05T14:56:44.149Z,3.90
2022-10-05T15:01:58.959Z,3.95
2022-10-05T15:07:38.977Z,3.75
2022-10-05T15:12:49.640Z,5.78
2022-10-05T15:18:00.816Z,4.65
2022-10-05T15:23:24.990Z,4.35
2022-10-05T15:28:38.985Z,3.95
2022-10-05T15:34:03.846Z,4.15
2022-10-05T15:39:48.201Z,3.78
2022-10-05T15:45:06.344Z,4.15
2022-10-05T15:50:26.263Z,4.10
2022-10-05T15:55:32.120Z,4.05
2022-10-05T16:00:44.366Z,3.92
2022-10-05T16:06:04.201Z,3.60
2022-10-05T16:11:16.993Z,3.83
2022-10-05T16:16:30.101Z,4.78
2022-10-05T16:21:45.837Z,4.15
2022-10-05T16:27:00.642Z,4.88
2022-10-05T16:32:19.069Z,5.28
2022-10-05T16:37:46.565Z,4.90
2022-10-05T16:43:25.662Z,4.78
2022-10-05T16:48:59.457Z,6.45
2022-10-05T16:59:26.930Z,5.53
2022-10-05T17:04:54.426Z,4.82
2022-10-05T17:10:18.044Z,6.57
2022-10-05T17:16:04.148Z,7.22
2022-10-05T17:21:15.369Z,7.38
2022-10-05T17:26:22.927Z,5.18
2022-10-05T17:31:28.114Z,6.25
2022-10-05T17:36:50.372Z,6.75
2022-10-05T17:41:52.003Z,7.30
2022-10-05T17:46:58.484Z,5.95
2022-10-05T17:52:23.080Z,7.45
2022-10-05T17:57:27.772Z,6.47
2022-10-05T18:02:36.351Z,6.97
2022-10-05T18:07:40.318Z,7.82
2022-10-05T18:12:45.278Z,7.53
2022-10-05T18:17:50.616Z,7.32
2022-10-05T18:22:55.658Z,7.10
2022-10-05T18:28:21.497Z,5.10
2022-10-05T18:33:44.527Z,5.22
2022-10-05T18:38:53.050Z,5.23
2022-10-05T18:44:12.034Z,5.00
2022-10-05T18:49:19.867Z,4.65
2022-10-05T18:55:01.997Z,5.13
2022-10-05T19:00:06.786Z,4.72
2022-10-05T19:05:47.028Z,4.78
2022-10-05T19:10:57.648Z,4.65
2022-10-05T19:16:25.750Z,4.53
2022-10-05T19:21:46.838Z,4.82
2022-10-05T19:27:22.017Z,5.60
2022-10-05T19:32:48.880Z,6.78
2022-10-05T19:38:05.759Z,5.90
2022-10-05T19:43:35.448Z,4.85
2022-10-05T19:48:48.413Z,4.13
2022-10-05T19:53:51.384Z,4.03
2022-10-05T19:58:57.559Z,3.70
2022-10-05T20:03:59.600Z,3.63
2022-10-05T20:09:19.553Z,3.60
2022-10-05T20:14:30.284Z,3.78
2022-10-05T20:19:50.512Z,2.65
2022-10-05T20:24:54.868Z,3.08
2022-10-05T20:29:57.406Z,2.97
2022-10-05T20:35:02.375Z,3.03
2022-10-05T20:40:05.160Z,3.00
2022-10-05T20:45:07.154Z,2.83
2022-10-05T20:50:10.356Z,4.10
2022-10-05T20:55:12.312Z,3.55
2022-10-05T21:00:14.027Z,3.00
2022-10-05T21:05:18.146Z,2.92
2022-10-05T21:10:19.919Z,3.13
2022-10-05T21:15:23.278Z,3.28
2022-10-05T21:20:24.788Z,3.60
2022-10-05T21:25:26.950Z,2.70
2022-10-05T21:30:28.423Z,2.50
2022-10-05T21:35:30.023Z,2.70
2022-10-05T21:40:31.516Z,2.50
2022-10-05T21:45:33.032Z,2.35
2022-10-05T21:50:35.273Z,2.28
2022-10-05T21:55:41.271Z,3.08
2022-10-05T22:00:42.915Z,3.05
2022-10-05T22:05:44.511Z,4.10
2022-10-05T22:10:46.121Z,4.60
2022-10-05T22:15:47.635Z,3.15
2022-10-05T22:20:49.811Z,4.22
2022-10-05T22:25:53.867Z,3.00
2022-10-05T22:30:55.946Z,2.80
2022-10-05T22:35:59.420Z,2.78
2022-10-05T22:41:00.964Z,2.70
2022-10-05T22:46:08.565Z,2.25
2022-10-05T22:51:10.354Z,1.98
2022-10-05T22:56:14.147Z,1.20
2022-10-05T23:01:17.230Z,1.63
2022-10-05T23:06:20.692Z,1.60
2022-10-05T23:11:27.685Z,1.27
2022-10-05T23:16:29.899Z,1.33
2022-10-05T23:21:31.672Z,1.10
2022-10-05T23:26:33.834Z,1.30
2022-10-05T23:31:36.883Z,1.55
2022-10-05T23:36:38.447Z,1.30
2022-10-05T23:41:40.476Z,0.77
2022-10-05T23:46:42.028Z,1.33
2022-10-05T23:51:44.843Z,1.55
2022-10-05T23:56:46.439Z,1.10
